Time;durP1;ratioP1;P1;durP2;ratioP2;P2;SDS_P1;SDS_P2;PMS_P1;PMS_P2;Temp;Humidity;BMP_temperature;BMP_pressure;BME280_temperature;BME280_humidity;BME280_pressure;Samples;Min_cycle;Max_cycle;Signal;HPM_P1;HPM_P2
2023/04/19 00:01:53;;;;;;;20.30;14.30;;;9.10;99.90;;;;;;493972;241;28500;-75
2023/04/19 00:03:55;;;;;;;22.37;14.70;;;9.10;99.90;;;;;;493993;241;28555;-75
2023/04/19 00:05:58;;;;;;;20.83;15.03;;;9.10;99.90;;;;;;493893;241;28101;-75
2023/04/19 00:08:00;;;;;;;20.37;14.73;;;9.00;99.90;;;;;;493968;241;27904;-75
2023/04/19 00:10:01;;;;;;;19.90;14.57;;;9.10;99.90;;;;;;493930;238;28106;-75
2023/04/19 00:12:02;;;;;;;19.63;14.00;;;9.00;99.90;;;;;;493953;241;27620;-76
2023/04/19 00:14:03;;;;;;;19.83;15.07;;;9.00;99.90;;;;;;493943;241;27931;-76
2023/04/19 00:16:05;;;;;;;20.30;14.70;;;9.00;99.90;;;;;;493914;241;28489;-76
2023/04/19 00:18:06;;;;;;;19.17;14.60;;;9.00;99.90;;;;;;493954;241;28347;-76
2023/04/19 00:20:08;;;;;;;18.93;13.80;;;8.90;99.90;;;;;;493887;241;27856;-76
2023/04/19 00:22:09;;;;;;;18.87;13.37;;;8.90;99.90;;;;;;493685;241;28000;-75
2023/04/19 00:24:10;;;;;;;18.20;13.10;;;8.90;99.90;;;;;;493848;241;27736;-76
2023/04/19 00:26:14;;;;;;;21.20;13.50;;;8.90;99.90;;;;;;493876;241;27951;-76
2023/04/19 00:28:12;;;;;;;18.23;13.33;;;8.80;99.90;;;;;;493782;241;27998;-76
2023/04/19 00:30:13;;;;;;;16.30;13.17;;;8.80;99.90;;;;;;493960;237;27835;-76
2023/04/19 00:32:15;;;;;;;18.03;13.17;;;8.90;99.90;;;;;;493852;241;28440;-76
2023/04/19 00:34:16;;;;;;;18.77;12.70;;;8.80;99.90;;;;;;493982;241;28277;-76
2023/04/19 00:36:17;;;;;;;16.20;12.30;;;8.90;99.90;;;;;;493989;241;28432;-75
2023/04/19 00:38:19;;;;;;;14.30;11.70;;;8.80;99.90;;;;;;493997;241;27537;-76
2023/04/19 00:40:20;;;;;;;17.40;11.70;;;8.80;99.90;;;;;;493972;241;27936;-76
2023/04/19 00:42:21;;;;;;;15.50;12.10;;;8.80;99.90;;;;;;493944;241;28003;-76
2023/04/19 00:44:22;;;;;;;15.33;11.83;;;8.80;99.90;;;;;;493914;241;28002;-76
2023/04/19 00:46:24;;;;;;;20.03;13.13;;;8.90;99.90;;;;;;493992;241;27818;-76
2023/04/19 00:48:25;;;;;;;17.27;12.27;;;8.80;99.90;;;;;;493989;241;27787;-75
2023/04/19 00:50:26;;;;;;;18.00;13.13;;;8.80;99.90;;;;;;493929;241;27944;-76
2023/04/19 00:52:27;;;;;;;14.33;11.53;;;8.70;99.90;;;;;;493980;237;28441;-76
2023/04/19 00:54:29;;;;;;;17.03;11.27;;;8.70;99.90;;;;;;493886;237;27996;-76
2023/04/19 00:56:30;;;;;;;16.13;12.77;;;8.70;99.90;;;;;;493975;237;28069;-76
2023/04/19 00:58:31;;;;;;;18.07;12.40;;;8.70;99.90;;;;;;493968;241;28067;-75
2023/04/19 01:00:32;;;;;;;18.17;12.80;;;8.70;99.90;;;;;;493980;241;28144;-76
2023/04/19 01:02:34;;;;;;;19.30;14.17;;;8.70;99.90;;;;;;494022;241;27925;-76
2023/04/19 01:04:35;;;;;;;16.77;12.30;;;8.70;99.90;;;;;;493891;241;28076;-75
2023/04/19 01:06:36;;;;;;;18.20;12.50;;;8.70;99.90;;;;;;493972;241;28003;-75
2023/04/19 01:08:38;;;;;;;16.77;12.47;;;8.70;99.90;;;;;;493942;241;27968;-76
2023/04/19 01:10:39;;;;;;;16.23;12.00;;;8.60;99.90;;;;;;493945;241;29103;-75
2023/04/19 01:12:40;;;;;;;16.50;12.50;;;8.70;99.90;;;;;;493954;241;28373;-76
2023/04/19 01:14:41;;;;;;;15.33;11.93;;;8.60;99.90;;;;;;493806;241;28107;-76
2023/04/19 01:16:42;;;;;;;15.87;11.60;;;8.60;99.90;;;;;;493981;241;28052;-76
2023/04/19 01:18:44;;;;;;;16.00;11.80;;;8.60;99.90;;;;;;493944;241;27969;-76
2023/04/19 01:20:45;;;;;;;15.47;11.80;;;8.60;99.90;;;;;;493810;241;27710;-75
2023/04/19 01:22:47;;;;;;;15.03;11.20;;;8.60;99.90;;;;;;494010;241;27941;-76
2023/04/19 01:24:47;;;;;;;15.23;12.70;;;8.60;99.90;;;;;;493834;241;27713;-76
2023/04/19 01:26:49;;;;;;;20.77;12.53;;;8.60;99.90;;;;;;493967;241;28400;-76
2023/04/19 01:28:50;;;;;;;18.63;12.23;;;8.50;99.90;;;;;;493925;241;28494;-76
2023/04/19 01:30:52;;;;;;;16.63;12.33;;;8.50;99.90;;;;;;493973;241;28424;-76
2023/04/19 01:32:52;;;;;;;14.13;11.07;;;8.50;99.90;;;;;;493962;241;27809;-75
2023/04/19 01:34:54;;;;;;;17.87;12.00;;;8.50;99.90;;;;;;493979;241;27737;-76
2023/04/19 01:36:55;;;;;;;14.20;11.00;;;8.50;99.90;;;;;;493961;241;28040;-76
2023/04/19 01:38:56;;;;;;;15.17;11.07;;;8.50;99.90;;;;;;493725;241;27985;-76
2023/04/19 01:40:57;;;;;;;16.40;11.87;;;8.40;99.90;;;;;;494046;241;28411;-76
2023/04/19 01:42:59;;;;;;;17.00;11.63;;;8.40;99.90;;;;;;494013;241;27928;-76
2023/04/19 01:45:00;;;;;;;14.90;11.03;;;8.40;99.90;;;;;;493925;241;28467;-76
2023/04/19 01:47:01;;;;;;;14.63;10.27;;;8.40;99.90;;;;;;493835;241;28133;-75
2023/04/19 01:49:03;;;;;;;13.57;10.20;;;8.40;99.90;;;;;;493923;241;28118;-76
2023/04/19 01:51:04;;;;;;;12.50;9.83;;;8.40;99.90;;;;;;494015;241;27607;-76
2023/04/19 01:53:05;;;;;;;17.60;11.13;;;8.40;99.90;;;;;;493861;241;27668;-75
2023/04/19 01:55:06;;;;;;;15.80;10.23;;;8.40;99.90;;;;;;493895;241;27963;-76
2023/04/19 01:57:07;;;;;;;16.20;11.60;;;8.40;99.90;;;;;;493958;241;27446;-76
2023/04/19 01:59:09;;;;;;;12.93;10.20;;;8.30;99.90;;;;;;493907;241;28090;-76
2023/04/19 02:01:11;;;;;;;13.47;10.10;;;8.20;99.90;;;;;;493836;241;27835;-75
2023/04/19 02:03:11;;;;;;;16.70;11.33;;;8.30;99.90;;;;;;493956;241;27735;-76
2023/04/19 02:05:13;;;;;;;12.03;9.70;;;8.30;99.90;;;;;;493917;241;28042;-75
2023/04/19 02:07:14;;;;;;;13.93;10.33;;;8.30;99.90;;;;;;493965;241;27967;-76
2023/04/19 02:09:15;;;;;;;15.10;10.80;;;8.30;99.90;;;;;;493994;241;27872;-75
2023/04/19 02:11:16;;;;;;;14.67;10.10;;;8.30;99.90;;;;;;494007;241;27939;-75
2023/04/19 02:13:18;;;;;;;13.40;10.40;;;8.30;99.90;;;;;;493977;241;28365;-75
2023/04/19 02:15:19;;;;;;;15.97;11.47;;;8.30;99.90;;;;;;493907;241;28529;-76
2023/04/19 02:17:20;;;;;;;13.13;11.20;;;8.20;99.90;;;;;;493964;241;28164;-76
2023/04/19 02:19:21;;;;;;;15.50;11.13;;;8.30;99.90;;;;;;493983;241;28094;-76
2023/04/19 02:21:23;;;;;;;13.70;10.60;;;8.30;99.90;;;;;;493992;241;28074;-76
2023/04/19 02:23:24;;;;;;;14.33;10.97;;;8.30;99.90;;;;;;493974;241;27926;-75
2023/04/19 02:25:25;;;;;;;14.97;10.70;;;8.30;99.90;;;;;;493892;241;27862;-75
2023/04/19 02:27:26;;;;;;;16.70;11.73;;;8.30;99.90;;;;;;493935;241;28060;-76
2023/04/19 02:29:28;;;;;;;17.40;11.23;;;8.30;99.90;;;;;;493974;241;28002;-75
2023/04/19 02:31:29;;;;;;;14.77;11.20;;;8.30;99.90;;;;;;493988;241;28463;-75
2023/04/19 02:33:30;;;;;;;14.10;10.47;;;8.30;99.90;;;;;;493982;241;28275;-75
2023/04/19 02:35:31;;;;;;;14.40;11.23;;;8.30;99.90;;;;;;493914;241;27868;-76
2023/04/19 02:37:33;;;;;;;14.20;11.17;;;8.30;99.90;;;;;;493994;241;27935;-76
2023/04/19 02:39:34;;;;;;;14.40;10.93;;;8.20;99.90;;;;;;493894;241;28203;-76
2023/04/19 02:41:35;;;;;;;17.10;11.77;;;8.30;99.90;;;;;;494012;241;28130;-76
2023/04/19 02:43:36;;;;;;;15.47;10.63;;;8.30;99.90;;;;;;494039;241;28038;-76
2023/04/19 02:45:38;;;;;;;12.80;10.17;;;8.30;99.90;;;;;;493915;241;28336;-76
2023/04/19 02:47:39;;;;;;;12.07;10.00;;;8.30;99.90;;;;;;493983;241;27908;-76
2023/04/19 02:49:41;;;;;;;13.03;10.40;;;8.30;99.90;;;;;;493958;241;28082;-76
2023/04/19 02:51:41;;;;;;;15.40;10.00;;;8.30;99.90;;;;;;493961;241;28115;-76
2023/04/19 02:53:43;;;;;;;15.33;10.30;;;8.30;99.90;;;;;;493975;241;28019;-76
2023/04/19 02:55:44;;;;;;;23.83;11.13;;;8.30;99.90;;;;;;493957;241;27976;-76
2023/04/19 02:57:45;;;;;;;16.30;10.73;;;8.30;99.90;;;;;;493941;241;27922;-76
2023/04/19 02:59:46;;;;;;;11.50;9.50;;;8.20;99.90;;;;;;493940;241;28055;-76
2023/04/19 03:01:48;;;;;;;15.20;10.23;;;8.30;99.90;;;;;;494006;241;28365;-75
2023/04/19 03:03:49;;;;;;;13.13;10.23;;;8.30;99.90;;;;;;494002;241;28585;-76
2023/04/19 03:05:50;;;;;;;15.43;9.97;;;8.20;99.90;;;;;;493892;241;28408;-75
2023/04/19 03:07:51;;;;;;;12.93;9.83;;;8.30;99.90;;;;;;493910;241;28091;-76
2023/04/19 03:09:53;;;;;;;14.70;10.43;;;8.20;99.90;;;;;;493955;241;27517;-76
2023/04/19 03:11:54;;;;;;;14.00;10.37;;;8.30;99.90;;;;;;493884;241;27988;-76
2023/04/19 03:13:55;;;;;;;12.30;9.73;;;8.20;99.90;;;;;;493927;241;27822;-76
2023/04/19 03:15:56;;;;;;;13.00;10.50;;;8.20;99.90;;;;;;493918;238;28084;-76
2023/04/19 03:17:58;;;;;;;12.53;9.60;;;8.30;99.90;;;;;;494006;241;27999;-76
2023/04/19 03:19:59;;;;;;;15.67;10.70;;;8.30;99.90;;;;;;493785;241;27924;-76
2023/04/19 03:22:00;;;;;;;16.20;10.77;;;8.30;99.90;;;;;;493908;241;28515;-76
2023/04/19 03:24:01;;;;;;;13.90;10.87;;;8.30;99.90;;;;;;493911;237;28535;-75
2023/04/19 03:26:03;;;;;;;13.20;11.00;;;8.30;99.90;;;;;;493907;241;28114;-76
2023/04/19 03:28:04;;;;;;;14.73;10.80;;;8.20;99.90;;;;;;493966;241;28053;-75
2023/04/19 03:30:05;;;;;;;15.30;10.83;;;8.20;99.90;;;;;;493946;241;27997;-75
2023/04/19 03:32:07;;;;;;;14.03;10.80;;;8.20;99.90;;;;;;493939;241;28083;-75
2023/04/19 03:34:08;;;;;;;14.60;10.37;;;8.20;99.90;;;;;;493965;241;28066;-75
2023/04/19 03:36:09;;;;;;;15.43;10.77;;;8.20;99.90;;;;;;493939;241;27994;-75
2023/04/19 03:38:10;;;;;;;14.80;10.50;;;8.20;99.90;;;;;;493960;241;27942;-76
2023/04/19 03:40:12;;;;;;;13.87;10.57;;;8.20;99.90;;;;;;493970;241;28449;-76
2023/04/19 03:42:13;;;;;;;13.83;10.57;;;8.10;99.90;;;;;;493932;241;28428;-75
2023/04/19 03:44:14;;;;;;;13.17;9.70;;;8.10;99.90;;;;;;493935;241;28560;-75
2023/04/19 03:46:15;;;;;;;15.83;11.00;;;8.10;99.90;;;;;;493970;241;27994;-76
2023/04/19 03:48:17;;;;;;;12.90;9.03;;;8.10;99.90;;;;;;493955;241;27957;-76
2023/04/19 03:50:18;;;;;;;13.97;10.40;;;8.10;99.90;;;;;;493976;241;28078;-76
2023/04/19 03:52:19;;;;;;;13.10;10.00;;;8.10;99.90;;;;;;493963;241;27581;-76
2023/04/19 03:54:20;;;;;;;12.40;9.20;;;8.10;99.90;;;;;;493942;241;27976;-76
2023/04/19 03:56:22;;;;;;;12.87;9.87;;;8.10;99.90;;;;;;494053;241;27497;-76
2023/04/19 03:58:23;;;;;;;13.00;9.90;;;8.10;99.90;;;;;;494027;241;28003;-76
2023/04/19 04:00:25;;;;;;;13.80;10.40;;;8.00;99.90;;;;;;494006;241;28396;-76
2023/04/19 04:02:25;;;;;;;12.33;9.77;;;8.00;99.90;;;;;;493965;241;28168;-75
2023/04/19 04:04:27;;;;;;;13.50;10.00;;;8.00;99.90;;;;;;493874;237;28711;-76
2023/04/19 04:06:28;;;;;;;11.27;8.80;;;8.00;99.90;;;;;;493991;241;28611;-76
2023/04/19 04:08:29;;;;;;;12.83;9.17;;;8.00;99.90;;;;;;494012;241;27932;-75
2023/04/19 04:10:30;;;;;;;12.07;9.60;;;8.00;99.90;;;;;;494011;241;27987;-75
2023/04/19 04:12:32;;;;;;;16.80;10.23;;;8.00;99.90;;;;;;493919;241;27867;-76
2023/04/19 04:14:33;;;;;;;15.87;10.97;;;8.00;99.90;;;;;;493915;241;28084;-75
2023/04/19 04:16:34;;;;;;;12.37;9.10;;;8.00;99.90;;;;;;493968;237;28155;-76
2023/04/19 04:18:35;;;;;;;13.20;10.07;;;8.00;99.90;;;;;;494008;241;27853;-76
2023/04/19 04:20:37;;;;;;;12.40;9.00;;;8.00;99.90;;;;;;494007;241;28066;-76
2023/04/19 04:22:38;;;;;;;12.70;9.17;;;8.00;99.90;;;;;;494007;241;28092;-76
2023/04/19 04:24:40;;;;;;;12.67;9.40;;;8.00;99.90;;;;;;493934;241;28187;-76
2023/04/19 04:26:41;;;;;;;13.70;10.10;;;8.00;99.90;;;;;;493963;241;28432;-76
2023/04/19 04:28:42;;;;;;;12.23;9.03;;;8.10;99.90;;;;;;493949;241;27649;-76
2023/04/19 04:30:43;;;;;;;10.60;8.97;;;8.00;99.90;;;;;;494000;237;28004;-76
2023/04/19 04:32:45;;;;;;;11.30;9.07;;;8.00;99.90;;;;;;493991;241;27935;-75
2023/04/19 04:34:46;;;;;;;12.40;9.23;;;8.00;99.90;;;;;;493822;241;27859;-76
2023/04/19 04:36:49;;;;;;;17.07;11.00;;;8.00;99.90;;;;;;493965;241;27874;-75
2023/04/19 04:38:48;;;;;;;16.73;10.37;;;8.00;99.90;;;;;;493828;241;27567;-76
2023/04/19 04:40:50;;;;;;;11.10;9.33;;;8.00;99.90;;;;;;493987;241;27938;-76
2023/04/19 04:42:51;;;;;;;14.73;9.43;;;8.00;99.90;;;;;;493945;241;27817;-75
2023/04/19 04:44:52;;;;;;;12.60;9.33;;;8.00;99.90;;;;;;493875;241;28466;-76
2023/04/19 04:46:53;;;;;;;13.47;10.20;;;8.00;99.90;;;;;;493978;241;29180;-75
2023/04/19 04:48:54;;;;;;;15.70;9.80;;;8.00;99.90;;;;;;493992;241;28246;-76
2023/04/19 04:50:55;;;;;;;14.00;10.00;;;8.00;99.90;;;;;;494022;241;27920;-75
2023/04/19 04:52:57;;;;;;;13.83;9.47;;;8.00;99.90;;;;;;493984;237;27931;-76
2023/04/19 04:54:58;;;;;;;14.47;10.47;;;8.00;99.90;;;;;;493913;241;28005;-76
2023/04/19 04:57:00;;;;;;;14.20;12.03;;;8.10;99.90;;;;;;494018;241;27500;-75
2023/04/19 04:59:00;;;;;;;12.60;10.00;;;8.10;99.90;;;;;;493981;241;27956;-75
2023/04/19 05:01:02;;;;;;;15.87;12.90;;;8.00;99.90;;;;;;493991;241;28040;-75
2023/04/19 05:03:03;;;;;;;13.20;11.03;;;8.00;99.90;;;;;;493919;241;28027;-75
2023/04/19 05:05:04;;;;;;;17.50;11.30;;;8.00;99.90;;;;;;493887;241;28466;-75
2023/04/19 05:07:05;;;;;;;16.20;11.90;;;8.00;99.90;;;;;;493989;237;28650;-76
2023/04/19 05:09:07;;;;;;;15.23;11.00;;;8.00;99.90;;;;;;493959;241;28042;-76
2023/04/19 05:11:08;;;;;;;14.70;10.60;;;8.10;99.90;;;;;;493986;241;28077;-75
2023/04/19 05:13:09;;;;;;;18.90;11.03;;;8.00;99.90;;;;;;493997;241;27933;-75
2023/04/19 05:15:10;;;;;;;15.83;10.90;;;8.10;99.90;;;;;;493916;241;27847;-76
2023/04/19 05:17:12;;;;;;;13.50;9.53;;;8.10;99.90;;;;;;493999;241;27858;-76
2023/04/19 05:19:13;;;;;;;14.87;9.87;;;8.00;99.90;;;;;;494030;241;27957;-75
2023/04/19 05:21:14;;;;;;;13.20;9.67;;;8.10;99.90;;;;;;494001;238;28056;-76
2023/04/19 05:23:15;;;;;;;12.53;9.40;;;8.10;99.90;;;;;;493980;241;27942;-75
2023/04/19 05:25:17;;;;;;;14.40;9.70;;;8.10;99.90;;;;;;493906;241;28646;-76
2023/04/19 05:27:18;;;;;;;14.23;9.00;;;8.10;99.90;;;;;;493982;241;28527;-76
2023/04/19 05:29:19;;;;;;;16.03;9.50;;;8.10;99.90;;;;;;494000;241;28106;-76
2023/04/19 05:31:21;;;;;;;12.20;9.20;;;8.10;99.90;;;;;;493862;241;27896;-76
2023/04/19 05:33:22;;;;;;;16.33;9.20;;;8.10;99.90;;;;;;493945;241;28021;-76
2023/04/19 05:35:23;;;;;;;16.70;10.70;;;8.10;99.90;;;;;;493905;241;28119;-76
2023/04/19 05:37:24;;;;;;;14.87;9.63;;;8.10;99.90;;;;;;493966;241;27949;-76
2023/04/19 05:39:25;;;;;;;12.97;9.30;;;8.20;99.90;;;;;;493779;241;27960;-75
2023/04/19 05:41:27;;;;;;;16.50;10.30;;;8.20;99.90;;;;;;493928;241;27547;-76
2023/04/19 05:43:28;;;;;;;11.20;9.30;;;8.20;99.90;;;;;;493993;241;28013;-76
2023/04/19 05:45:29;;;;;;;11.87;9.40;;;8.20;99.90;;;;;;493868;237;27983;-75
2023/04/19 05:47:30;;;;;;;12.37;8.67;;;8.20;99.90;;;;;;493942;237;28638;-76
2023/04/19 05:49:32;;;;;;;11.47;8.77;;;8.20;99.90;;;;;;493978;241;28397;-75
2023/04/19 05:51:33;;;;;;;10.70;8.90;;;8.30;99.90;;;;;;493963;241;28458;-76
2023/04/19 05:53:34;;;;;;;17.97;11.93;;;8.30;99.90;;;;;;493958;241;27817;-76
2023/04/19 05:55:36;;;;;;;13.40;10.20;;;8.30;99.90;;;;;;493887;241;27794;-76
2023/04/19 05:57:37;;;;;;;17.60;11.97;;;8.40;99.90;;;;;;493891;241;27956;-76
2023/04/19 05:59:38;;;;;;;12.63;9.73;;;8.40;99.90;;;;;;494006;241;27929;-76
2023/04/19 06:01:39;;;;;;;12.47;9.30;;;8.50;99.90;;;;;;493938;241;28303;-76
2023/04/19 06:03:41;;;;;;;17.53;11.67;;;8.20;99.90;;;;;;493966;241;27600;-76
2023/04/19 06:05:42;;;;;;;12.37;9.17;;;8.30;99.90;;;;;;493917;241;28473;-76
2023/04/19 06:07:43;;;;;;;13.10;9.30;;;8.50;99.90;;;;;;493956;241;29093;-76
2023/04/19 06:09:44;;;;;;;11.80;9.20;;;8.10;99.90;;;;;;493964;241;28493;-76
2023/04/19 06:11:46;;;;;;;12.73;9.40;;;8.40;99.90;;;;;;493956;241;28248;-76
2023/04/19 06:13:47;;;;;;;14.43;9.70;;;7.80;99.90;;;;;;493995;237;27802;-75
2023/04/19 06:15:48;;;;;;;11.93;8.90;;;8.50;99.90;;;;;;493874;237;28035;-76
2023/04/19 06:17:49;;;;;;;11.80;9.13;;;8.50;99.90;;;;;;493968;241;27938;-76
2023/04/19 06:19:51;;;;;;;13.70;9.33;;;8.50;99.90;;;;;;494002;241;27987;-75
2023/04/19 06:21:52;;;;;;;12.93;9.70;;;8.30;99.90;;;;;;493978;241;28027;-75
2023/04/19 06:23:53;;;;;;;17.77;10.20;;;8.60;99.90;;;;;;493981;241;27931;-76
2023/04/19 06:25:54;;;;;;;13.87;9.33;;;8.50;99.90;;;;;;493946;241;27898;-76
2023/04/19 06:27:56;;;;;;;11.97;8.80;;;8.60;99.90;;;;;;494010;241;27986;-76
2023/04/19 06:29:59;;;;;;;13.50;9.50;;;8.70;99.90;;;;;;494031;241;28528;-76
2023/04/19 06:31:58;;;;;;;15.00;9.67;;;8.80;99.90;;;;;;493816;241;28250;-76
2023/04/19 06:33:59;;;;;;;11.30;9.10;;;8.70;99.90;;;;;;493984;241;28463;-76
2023/04/19 06:36:01;;;;;;;13.33;9.17;;;8.50;99.90;;;;;;493952;238;28013;-75
2023/04/19 06:38:02;;;;;;;10.57;7.83;;;9.30;99.90;;;;;;494008;241;27946;-76
2023/04/19 06:40:07;;;;;;;11.30;8.33;;;9.20;99.90;;;;;;494012;241;27932;-76
2023/04/19 06:42:07;;;;;;;12.90;8.63;;;9.10;99.90;;;;;;493959;237;28054;-74
2023/04/19 06:44:09;;;;;;;14.40;9.57;;;9.60;99.90;;;;;;493966;241;28098;-76
2023/04/19 06:46:12;;;;;;;10.43;8.20;;;9.30;99.90;;;;;;493882;238;28047;-76
2023/04/19 06:48:11;;;;;;;10.57;8.40;;;9.60;99.90;;;;;;493779;241;27926;-76
2023/04/19 06:50:12;;;;;;;11.90;9.67;;;9.50;99.90;;;;;;493985;241;27998;-76
2023/04/19 06:52:14;;;;;;;14.03;9.60;;;9.40;99.90;;;;;;493950;241;27815;-76
2023/04/19 06:54:15;;;;;;;12.80;9.53;;;9.20;99.90;;;;;;493921;241;27907;-76
2023/04/19 06:56:16;;;;;;;11.73;8.80;;;9.30;99.90;;;;;;493917;241;27732;-76
2023/04/19 06:58:17;;;;;;;11.63;8.97;;;9.20;99.90;;;;;;493934;241;28072;-76
2023/04/19 07:00:19;;;;;;;11.80;9.40;;;9.30;99.90;;;;;;493998;241;28433;-76
2023/04/19 07:02:20;;;;;;;11.67;8.37;;;9.40;99.90;;;;;;493983;241;28137;-76
2023/04/19 07:04:21;;;;;;;13.43;9.63;;;9.50;99.90;;;;;;493777;241;28662;-76
2023/04/19 07:06:22;;;;;;;10.60;7.90;;;9.50;99.90;;;;;;493929;241;28397;-75
2023/04/19 07:08:24;;;;;;;10.60;8.70;;;9.70;99.90;;;;;;493983;241;27889;-76
2023/04/19 07:10:25;;;;;;;11.60;8.50;;;9.20;99.90;;;;;;493854;241;28104;-76
2023/04/19 07:12:26;;;;;;;11.20;8.30;;;9.60;99.90;;;;;;493953;241;27696;-76
2023/04/19 07:14:27;;;;;;;12.40;8.40;;;9.80;99.90;;;;;;493899;241;27974;-75
2023/04/19 07:16:29;;;;;;;14.43;9.60;;;9.90;99.90;;;;;;493935;241;28066;-75
2023/04/19 07:18:30;;;;;;;11.27;8.17;;;9.10;99.90;;;;;;494001;241;28010;-76
2023/04/19 07:20:31;;;;;;;10.40;7.87;;;9.70;99.90;;;;;;493909;241;28081;-76
2023/04/19 07:22:32;;;;;;;12.87;8.63;;;9.80;99.90;;;;;;493976;241;28103;-76
2023/04/19 07:24:34;;;;;;;11.93;8.60;;;9.90;99.90;;;;;;493810;241;28319;-75
2023/04/19 07:26:35;;;;;;;10.13;8.13;;;10.20;99.90;;;;;;493959;241;29186;-75
2023/04/19 07:28:36;;;;;;;12.03;9.27;;;9.50;99.90;;;;;;493827;241;28444;-76
2023/04/19 07:30:37;;;;;;;11.07;8.40;;;9.60;99.90;;;;;;493955;241;28010;-76
2023/04/19 07:32:39;;;;;;;9.83;8.03;;;10.00;99.90;;;;;;493971;241;28152;-75
2023/04/19 07:34:41;;;;;;;12.87;8.20;;;9.50;99.90;;;;;;493863;241;29723;-76
2023/04/19 07:36:41;;;;;;;11.97;7.90;;;10.30;99.90;;;;;;493936;241;28098;-76
2023/04/19 07:38:42;;;;;;;10.80;8.07;;;10.70;99.90;;;;;;493999;241;28189;-76
2023/04/19 07:40:44;;;;;;;9.90;8.00;;;10.20;99.90;;;;;;493967;241;28112;-75
2023/04/19 07:42:45;;;;;;;11.23;8.90;;;9.90;99.90;;;;;;493953;241;27993;-76
2023/04/19 07:44:46;;;;;;;13.40;8.53;;;10.30;99.90;;;;;;493902;241;28177;-76
2023/04/19 07:46:47;;;;;;;10.00;8.60;;;10.50;99.90;;;;;;493972;241;28494;-75
2023/04/19 07:48:49;;;;;;;9.13;7.57;;;10.40;99.90;;;;;;493961;241;28509;-76
2023/04/19 07:50:50;;;;;;;11.90;8.60;;;10.50;99.90;;;;;;493953;241;28703;-76
2023/04/19 07:52:51;;;;;;;13.80;8.80;;;10.50;99.90;;;;;;493875;241;28142;-76
2023/04/19 07:54:52;;;;;;;14.30;8.43;;;10.40;99.90;;;;;;493893;241;28081;-76
2023/04/19 07:56:54;;;;;;;8.60;7.00;;;10.60;99.90;;;;;;494017;241;28195;-76
2023/04/19 07:58:55;;;;;;;10.70;7.80;;;10.70;99.90;;;;;;494004;241;28273;-76
2023/04/19 08:00:56;;;;;;;14.13;7.37;;;10.80;99.90;;;;;;493975;241;28118;-76
2023/04/19 08:02:57;;;;;;;9.80;7.37;;;10.70;99.90;;;;;;493978;241;28358;-76
2023/04/19 08:05:01;;;;;;;12.93;7.80;;;10.90;99.90;;;;;;493867;241;28682;-75
2023/04/19 08:07:01;;;;;;;10.93;7.50;;;10.80;99.90;;;;;;493805;241;29391;-76
2023/04/19 08:09:02;;;;;;;12.37;7.47;;;10.70;99.90;;;;;;493983;241;28828;-76
2023/04/19 08:11:03;;;;;;;10.83;8.07;;;11.00;99.90;;;;;;493962;241;28565;-76
2023/04/19 08:13:04;;;;;;;11.00;8.27;;;10.70;99.90;;;;;;493972;241;28559;-76
2023/04/19 08:15:06;;;;;;;10.57;8.00;;;10.90;99.90;;;;;;493892;241;28458;-75
2023/04/19 08:17:08;;;;;;;10.03;7.67;;;;;;;;;;493951;241;28355;-76
2023/04/19 08:19:09;;;;;;;14.60;8.70;;;10.70;99.90;;;;;;493998;241;27219;-76
2023/04/19 08:21:10;;;;;;;10.00;8.10;;;10.80;99.90;;;;;;493973;241;28306;-75
2023/04/19 08:23:11;;;;;;;12.77;7.93;;;11.20;99.90;;;;;;493953;241;28432;-76
2023/04/19 08:25:12;;;;;;;9.87;7.83;;;11.10;99.90;;;;;;493865;241;28363;-76
2023/04/19 08:27:14;;;;;;;12.53;7.80;;;10.90;99.90;;;;;;493945;241;28373;-76
2023/04/19 08:29:15;;;;;;;8.53;7.10;;;11.00;99.90;;;;;;493938;241;28341;-76
2023/04/19 08:31:16;;;;;;;9.70;7.50;;;10.20;99.90;;;;;;493968;241;28138;-76
2023/04/19 08:33:17;;;;;;;10.47;8.80;;;10.40;99.90;;;;;;493827;241;28825;-76
2023/04/19 08:35:19;;;;;;;11.63;8.27;;;10.70;99.90;;;;;;493869;237;28697;-76
2023/04/19 08:37:20;;;;;;;11.60;8.80;;;10.20;99.90;;;;;;493765;241;28557;-75
2023/04/19 08:39:21;;;;;;;9.57;7.97;;;9.80;99.90;;;;;;493936;241;28172;-76
2023/04/19 08:41:22;;;;;;;9.30;7.80;;;9.80;99.90;;;;;;493965;237;27969;-76
2023/04/19 08:43:24;;;;;;;12.33;8.50;;;10.60;99.90;;;;;;493875;241;28091;-76
2023/04/19 08:45:25;;;;;;;9.73;8.50;;;10.40;99.90;;;;;;493985;241;28183;-76
2023/04/19 08:47:26;;;;;;;10.33;8.17;;;9.60;99.90;;;;;;493842;241;28492;-76
2023/04/19 08:49:27;;;;;;;9.70;8.33;;;9.80;99.90;;;;;;493945;241;28168;-76
2023/04/19 08:51:30;;;;;;;13.70;10.10;;;10.30;99.90;;;;;;493980;241;28055;-75
2023/04/19 08:53:30;;;;;;;14.73;11.20;;;10.30;99.90;;;;;;493948;241;28200;-76
2023/04/19 08:55:31;;;;;;;16.60;12.27;;;10.40;99.90;;;;;;493958;241;28597;-76
2023/04/19 08:57:32;;;;;;;14.80;10.17;;;9.60;99.90;;;;;;493870;237;28529;-76
2023/04/19 08:59:34;;;;;;;10.70;9.27;;;10.10;99.90;;;;;;493954;241;27960;-76
2023/04/19 09:01:35;;;;;;;15.03;9.60;;;10.00;99.90;;;;;;493988;241;27921;-76
2023/04/19 09:03:36;;;;;;;12.37;10.40;;;10.50;99.90;;;;;;494003;241;28133;-76
2023/04/19 09:05:38;;;;;;;12.23;9.77;;;10.60;99.90;;;;;;493922;241;28252;-76
2023/04/19 09:07:39;;;;;;;11.43;9.87;;;10.60;99.90;;;;;;493974;237;28071;-75
2023/04/19 09:09:41;;;;;;;16.47;11.77;;;10.60;99.90;;;;;;493992;241;28120;-76
2023/04/19 09:11:41;;;;;;;13.67;11.40;;;10.40;99.90;;;;;;493860;241;28619;-76
2023/04/19 09:13:43;;;;;;;14.40;11.37;;;10.90;99.90;;;;;;493990;241;28646;-76
2023/04/19 09:15:44;;;;;;;17.13;11.80;;;10.60;99.90;;;;;;493917;241;28305;-75
2023/04/19 09:17:45;;;;;;;13.10;10.20;;;10.60;99.90;;;;;;493992;241;28174;-76
2023/04/19 09:19:46;;;;;;;12.57;9.93;;;10.60;99.90;;;;;;493957;241;28200;-75
2023/04/19 09:21:50;;;;;;;13.70;10.80;;;10.70;99.90;;;;;;493989;241;28269;-75
2023/04/19 09:23:49;;;;;;;12.90;11.10;;;10.60;99.90;;;;;;493781;241;28054;-76
2023/04/19 09:25:50;;;;;;;12.60;10.40;;;10.50;99.90;;;;;;493958;241;28470;-76
2023/04/19 09:27:51;;;;;;;11.30;8.60;;;10.30;99.90;;;;;;493125;241;36568;-76
2023/04/19 09:29:53;;;;;;;14.10;10.00;;;10.80;99.90;;;;;;493992;241;27969;-76
2023/04/19 09:31:54;;;;;;;13.87;10.80;;;10.20;99.90;;;;;;493984;241;28085;-75
2023/04/19 09:33:55;;;;;;;14.03;11.50;;;10.70;99.90;;;;;;494026;241;28187;-76
2023/04/19 09:35:56;;;;;;;15.90;11.57;;;10.70;99.90;;;;;;493895;241;28214;-76
2023/04/19 09:37:58;;;;;;;13.63;10.40;;;10.60;99.90;;;;;;494001;240;28040;-76
2023/04/19 09:39:59;;;;;;;13.87;11.30;;;10.70;99.90;;;;;;493981;241;28194;-75
2023/04/19 09:42:00;;;;;;;14.67;11.10;;;10.80;99.90;;;;;;493979;241;28617;-75
2023/04/19 09:44:01;;;;;;;16.97;11.27;;;11.00;99.90;;;;;;494008;241;28725;-76
2023/04/19 09:46:03;;;;;;;11.63;9.47;;;11.10;99.90;;;;;;493972;241;28330;-75
2023/04/19 09:48:04;;;;;;;11.97;9.33;;;11.50;99.90;;;;;;493981;238;28255;-76
2023/04/19 09:50:05;;;;;;;12.00;9.23;;;11.40;99.90;;;;;;493957;241;28433;-76
2023/04/19 09:52:06;;;;;;;10.17;8.23;;;11.30;99.90;;;;;;493985;241;28435;-76
2023/04/19 09:54:08;;;;;;;10.93;9.20;;;11.10;99.90;;;;;;493872;241;28581;-76
2023/04/19 09:56:11;;;;;;;13.10;9.80;;;11.00;99.90;;;;;;493934;241;28424;-76
2023/04/19 09:58:10;;;;;;;14.60;10.30;;;11.00;99.90;;;;;;493783;241;28964;-76
2023/04/19 10:00:14;;;;;;;12.00;9.97;;;10.90;99.90;;;;;;493946;241;28968;-76
2023/04/19 10:02:13;;;;;;;13.40;10.83;;;10.80;99.90;;;;;;493762;241;28330;-76
2023/04/19 10:04:24;;;;;;;12.23;9.90;;;10.70;99.90;;;;;;493981;237;28145;-76
2023/04/19 10:06:15;;;;;;;10.00;8.33;;;11.20;99.90;;;;;;493138;241;28427;-76
2023/04/19 10:08:16;;;;;;;11.20;9.40;;;11.70;99.90;;;;;;493961;241;28489;-76
2023/04/19 10:10:18;;;;;;;15.53;10.30;;;12.10;99.90;;;;;;493921;241;28497;-75
2023/04/19 10:12:19;;;;;;;9.77;8.50;;;12.10;99.90;;;;;;494025;241;28698;-76
2023/04/19 10:14:20;;;;;;;11.30;8.53;;;12.10;99.90;;;;;;493894;241;29100;-77
2023/04/19 10:16:22;;;;;;;14.27;8.60;;;12.10;99.90;;;;;;493910;241;28827;-76
2023/04/19 10:18:23;;;;;;;12.10;9.30;;;11.90;99.90;;;;;;493945;241;28514;-76
2023/04/19 10:20:24;;;;;;;10.50;8.00;;;11.70;99.90;;;;;;493998;241;28305;-76
2023/04/19 10:22:25;;;;;;;11.67;8.37;;;11.80;99.90;;;;;;493803;241;28333;-77
2023/04/19 10:24:27;;;;;;;9.20;7.40;;;11.80;99.90;;;;;;493912;241;28155;-76
2023/04/19 10:26:28;;;;;;;10.60;8.57;;;12.00;99.90;;;;;;493845;241;28852;-76